CSAV Loncomilla — VRFB3 — position and weather

sailwx.info

Track history (hours):
 
Tides and Currents Weather Stations Pressure Air Temp Water Temp Dewpoint Dewpoint Depression Visibility Wind Speed Wind Dir Waves Ship Positions

CSAV Loncomilla

Last reported at 2015-May-20 18:30 UTC. Time now 2015-May-23 05:50 UTC.
Position N 22°08' E 114°33'.

Length 261 m; draft 12.1 m.

MMSI: 477207400.

Date/timePositionNaut miles runAvg speedWind from/ knotsBaromVisibWave heightAir tempDewpointWater temp
2015-May-20 18:30N 22°08' E 114°33'1614.4
2015-May-20 17:21N 22°08' E 114°15'9 9.7
2015-May-20 16:23N 22°14' E 114°08'6 7.4
2015-May-20 15:33N 22°20' E 114°07'0 0.0
2015-May-19 23:14N 22°21' E 114°07'0 0.0
2015-May-19 21:29N 22°21' E 114°07'0 0.0
2015-May-19 20:17N 22°21' E 114°07'0 0.1
2015-May-19 15:33N 22°20' E 114°07'14 7.1
2015-May-19 13:33N 22°25' E 113°53'4 0.4
2015-May-19 02:25N 22°29' E 113°52'0 0.0
2015-May-18 23:32N 22°29' E 113°52'5 5.4
2015-May-18 22:33N 22°24' E 113°54'10 9.2
2015-May-18 21:29N 22°22' E 114°04'1011.1
2015-May-18 20:33N 22°13' E 114°10'6 6.3
2015-May-18 19:33N 22°09' E 114°15'7 7.5
2015-May-18 18:33N 22°09' E 114°23'7 7.5
2015-May-18 17:33N 22°10' E 114°31'7 7.1
2015-May-18 16:31N 22°17' E 114°33'21 1.3
2015-May-18 00:22N 22°34' E 114°19'17 6.0
2015-May-17 21:33N 22°21' E 114°31'  
Track history (hours):
 
Tides and Currents Weather Stations Pressure Air Temp Water Temp Dewpoint Dewpoint Depression Visibility Wind Speed Wind Dir Waves Ship Positions

CSAV Loncomilla

Last reported at 2015-May-20 18:30 UTC. Time now 2015-May-23 05:50 UTC.
Position N 22°08' E 114°33'.

Length 261 m; draft 12.1 m.

MMSI: 477207400.

Date/timePositionNaut miles runAvg speedWind from/ knotsBaromVisibWave heightAir tempDewpointWater temp
2015-May-20 18:30N 22°08' E 114°33'1614.4
2015-May-20 17:21N 22°08' E 114°15'9 9.7
2015-May-20 16:23N 22°14' E 114°08'6 7.4
2015-May-20 15:33N 22°20' E 114°07'0 0.0
2015-May-19 23:14N 22°21' E 114°07'0 0.0
2015-May-19 21:29N 22°21' E 114°07'0 0.0
2015-May-19 20:17N 22°21' E 114°07'0 0.1
2015-May-19 15:33N 22°20' E 114°07'14 7.1
2015-May-19 13:33N 22°25' E 113°53'4 0.4
2015-May-19 02:25N 22°29' E 113°52'0 0.0
2015-May-18 23:32N 22°29' E 113°52'5 5.4
2015-May-18 22:33N 22°24' E 113°54'10 9.2
2015-May-18 21:29N 22°22' E 114°04'1011.1
2015-May-18 20:33N 22°13' E 114°10'6 6.3
2015-May-18 19:33N 22°09' E 114°15'7 7.5
2015-May-18 18:33N 22°09' E 114°23'7 7.5
2015-May-18 17:33N 22°10' E 114°31'7 7.1
2015-May-18 16:31N 22°17' E 114°33'21 1.3
2015-May-18 00:22N 22°34' E 114°19'17 6.0
2015-May-17 21:33N 22°21' E 114°31'  

Dump ship's entire track history